Terminal Aerodrome Forecast
Issued by NWS

Home | Current Version | Previous Version | Text Only | Print | Product List | Glossary On
Versions: 1 2 3 4 5 6 7 8 9 10 11 12 13 14
000
FTUS43 KJKL 250600 AAB
TAFSME
TAF AMD
KSME 250659Z 2507/2606 00000KT 4SM BR SCT100
     FM250800 00000KT 1SM BR SCT050 SCT100
     FM251300 00000KT P6SM SCT050=

USA.gov is the U.S. government's official web portal to all federal, state and local government web resources and services.